createdAt,value
2017-06-10T00:01:21.243Z,2.80
2017-06-10T00:03:48.774Z,2.00
2017-06-10T00:06:16.297Z,2.80
2017-06-10T00:08:43.796Z,2.55
2017-06-10T00:11:11.340Z,2.40
2017-06-10T00:13:38.879Z,2.60
2017-06-10T00:16:06.520Z,3.30
2017-06-10T00:18:34.110Z,2.87
2017-06-10T00:21:01.647Z,2.92
2017-06-10T00:23:29.179Z,2.83
2017-06-10T00:25:56.707Z,2.85
2017-06-10T00:28:24.195Z,2.53
2017-06-10T00:30:51.698Z,2.30
2017-06-10T00:33:19.283Z,2.55
2017-06-10T00:35:46.786Z,2.85
2017-06-10T00:38:14.417Z,2.50
2017-06-10T00:40:41.928Z,2.78
2017-06-10T00:43:09.496Z,2.05
2017-06-10T00:45:37.011Z,3.08
2017-06-10T00:48:04.522Z,2.20
2017-06-10T00:50:32.026Z,2.20
2017-06-10T00:52:59.646Z,2.40
2017-06-10T00:55:27.159Z,2.45
2017-06-10T00:57:54.677Z,2.60
2017-06-10T01:00:22.206Z,2.67
2017-06-10T01:02:49.703Z,3.40
2017-06-10T01:05:17.204Z,4.22
2017-06-10T01:07:45.484Z,3.70
2017-06-10T01:10:13.838Z,4.65
2017-06-10T01:12:41.337Z,4.43
2017-06-10T01:15:08.869Z,5.65
2017-06-10T01:17:36.700Z,6.28
2017-06-10T01:20:04.242Z,6.30
2017-06-10T01:22:31.788Z,6.07
2017-06-10T01:24:59.279Z,5.60
2017-06-10T01:27:26.854Z,5.78
2017-06-10T01:29:54.355Z,6.07
2017-06-10T01:32:21.877Z,5.65
2017-06-10T01:34:49.374Z,5.30
2017-06-10T01:37:16.961Z,7.05
2017-06-10T01:39:44.493Z,5.55
2017-06-10T01:42:12.776Z,6.00
2017-06-10T01:44:40.283Z,6.20
2017-06-10T01:47:07.774Z,6.03
2017-06-10T01:49:35.287Z,6.22
2017-06-10T01:52:02.787Z,4.70
2017-06-10T01:54:30.286Z,4.97
2017-06-10T01:56:57.808Z,5.65
2017-06-10T01:59:25.351Z,5.53
2017-06-10T02:01:52.855Z,4.70
2017-06-10T02:04:20.383Z,5.85
2017-06-10T02:06:47.918Z,5.32
2017-06-10T02:09:15.420Z,3.95
2017-06-10T02:11:43.691Z,4.25
2017-06-10T02:14:12.288Z,4.00
2017-06-10T02:16:39.812Z,4.25
2017-06-10T02:19:07.342Z,4.10
2017-06-10T02:21:34.848Z,3.72
2017-06-10T02:24:02.343Z,3.80
2017-06-10T02:26:29.848Z,4.65
2017-06-10T02:28:57.375Z,4.50
2017-06-10T02:31:24.881Z,4.85
2017-06-10T02:33:52.390Z,5.55
2017-06-10T02:36:19.957Z,5.05
2017-06-10T02:38:47.467Z,5.37
2017-06-10T02:41:14.971Z,6.10
2017-06-10T02:43:42.480Z,6.15
2017-06-10T02:46:10.755Z,6.70
2017-06-10T02:48:39.020Z,4.70
2017-06-10T02:51:06.528Z,8.65
2017-06-10T02:53:34.057Z,7.37
2017-06-10T02:56:01.565Z,6.75
2017-06-10T02:58:29.059Z,7.15
2017-06-10T03:00:56.575Z,8.75
2017-06-10T03:03:24.078Z,7.95
2017-06-10T03:05:51.582Z,7.85
2017-06-10T03:08:19.120Z,8.13
2017-06-10T03:10:47.441Z,8.63
2017-06-10T03:13:14.942Z,7.95
2017-06-10T03:15:42.471Z,7.40
2017-06-10T03:18:09.980Z,8.50
2017-06-10T03:20:37.498Z,6.47
2017-06-10T03:23:05.122Z,6.28
2017-06-10T03:25:32.621Z,6.00
2017-06-10T03:28:00.151Z,6.18
2017-06-10T03:30:27.643Z,5.32
2017-06-10T03:32:55.123Z,5.05
2017-06-10T03:35:23.404Z,5.03
2017-06-10T03:37:51.686Z,5.70
2017-06-10T03:40:19.982Z,5.07
2017-06-10T03:42:47.502Z,4.05
2017-06-10T03:45:15.015Z,4.78
2017-06-10T03:47:42.530Z,4.47
2017-06-10T03:50:10.867Z,4.10
2017-06-10T03:52:38.380Z,4.43
2017-06-10T03:55:05.904Z,5.10
2017-06-10T03:57:33.412Z,4.18
2017-06-10T04:00:00.949Z,5.55
2017-06-10T04:02:28.455Z,4.68
2017-06-10T04:04:55.955Z,5.00
2017-06-10T04:07:24.326Z,4.28
2017-06-10T04:09:51.834Z,3.67
2017-06-10T04:12:19.355Z,3.92
2017-06-10T04:14:47.628Z,4.30
2017-06-10T04:17:15.969Z,4.85
2017-06-10T04:19:43.515Z,4.43
2017-06-10T04:22:11.009Z,4.35
2017-06-10T04:24:38.513Z,3.85
2017-06-10T04:27:06.022Z,4.20
2017-06-10T04:29:33.527Z,3.78
2017-06-10T04:32:01.027Z,3.83
2017-06-10T04:34:28.535Z,3.92
2017-06-10T04:36:56.820Z,3.97
2017-06-10T04:39:24.346Z,3.22
2017-06-10T04:41:51.853Z,3.35
2017-06-10T04:44:19.368Z,4.30
2017-06-10T04:46:47.086Z,4.20
2017-06-10T04:49:14.595Z,3.55
2017-06-10T04:51:42.086Z,4.53
2017-06-10T04:54:09.600Z,3.00
2017-06-10T04:56:37.101Z,4.37
2017-06-10T04:59:04.622Z,4.07
2017-06-10T05:01:32.124Z,3.60
2017-06-10T05:03:59.677Z,3.25
2017-06-10T05:06:27.183Z,4.62
2017-06-10T05:08:54.686Z,3.33
2017-06-10T05:11:22.198Z,3.22
2017-06-10T05:13:49.686Z,4.05
2017-06-10T05:16:17.205Z,3.42
2017-06-10T05:18:44.720Z,4.15
2017-06-10T05:21:12.247Z,3.67
2017-06-10T05:23:39.740Z,3.85
2017-06-10T05:26:08.014Z,3.05
2017-06-10T05:28:35.534Z,3.42
2017-06-10T05:31:03.043Z,4.95
2017-06-10T05:33:30.537Z,3.08
2017-06-10T05:35:58.038Z,3.28
2017-06-10T05:38:26.321Z,3.42
2017-06-10T05:40:54.583Z,3.50
2017-06-10T05:43:22.079Z,4.45
2017-06-10T05:45:49.622Z,3.17
2017-06-10T05:48:17.121Z,3.08
2017-06-10T05:50:44.614Z,3.00
2017-06-10T05:53:12.130Z,3.00
2017-06-10T05:55:39.630Z,2.87
2017-06-10T05:58:07.132Z,2.95
2017-06-10T06:00:34.632Z,2.65
2017-06-10T06:03:02.123Z,3.55
2017-06-10T06:05:30.391Z,3.95
2017-06-10T06:07:57.922Z,3.00
2017-06-10T06:10:25.436Z,4.07
2017-06-10T06:12:52.940Z,3.12
2017-06-10T06:15:20.442Z,3.08
2017-06-10T06:17:48.719Z,3.37
2017-06-10T06:20:16.209Z,3.78
2017-06-10T06:22:43.727Z,3.50
2017-06-10T06:25:11.248Z,2.40
2017-06-10T06:27:38.753Z,3.22
2017-06-10T06:30:07.024Z,2.80
2017-06-10T06:32:35.323Z,1.25
2017-06-10T06:35:02.876Z,2.97
2017-06-10T06:37:31.120Z,3.40
2017-06-10T06:39:58.612Z,2.55
2017-06-10T06:42:26.155Z,2.37
2017-06-10T06:44:54.434Z,3.28
2017-06-10T06:47:22.738Z,2.67
2017-06-10T06:49:50.316Z,2.85
2017-06-10T06:52:17.831Z,2.92
2017-06-10T06:54:46.109Z,2.28
2017-06-10T06:57:14.379Z,3.25
2017-06-10T06:59:41.894Z,3.25
2017-06-10T07:02:09.404Z,2.60
2017-06-10T07:04:36.899Z,2.17
2017-06-10T07:07:04.419Z,2.30
2017-06-10T07:09:31.919Z,2.30
2017-06-10T07:12:00.290Z,1.60
2017-06-10T07:14:27.802Z,2.40
2017-06-10T07:16:55.304Z,2.40
2017-06-10T07:19:22.820Z,3.40
2017-06-10T07:21:50.335Z,2.55
2017-06-10T07:24:17.903Z,2.75
2017-06-10T07:26:45.419Z,2.50
2017-06-10T07:29:12.934Z,2.30
2017-06-10T07:31:40.436Z,2.10
2017-06-10T07:34:08.734Z,1.70
2017-06-10T07:36:36.262Z,2.50
2017-06-10T07:39:03.775Z,2.42
2017-06-10T07:41:31.303Z,2.85
2017-06-10T07:43:59.592Z,2.95
2017-06-10T07:46:27.094Z,3.78
2017-06-10T07:48:54.604Z,3.22
2017-06-10T07:51:22.117Z,2.92
2017-06-10T07:53:49.643Z,3.65
2017-06-10T07:56:17.163Z,2.53
2017-06-10T07:58:44.658Z,3.70
2017-06-10T08:01:12.161Z,2.08
2017-06-10T08:03:39.715Z,2.65
2017-06-10T08:06:07.244Z,3.15
2017-06-10T08:08:34.756Z,2.85
2017-06-10T08:11:03.034Z,2.20
2017-06-10T08:13:31.312Z,2.90
2017-06-10T08:15:59.612Z,3.00
2017-06-10T08:18:27.135Z,2.60
2017-06-10T08:20:54.678Z,2.70
2017-06-10T08:23:22.184Z,3.12
2017-06-10T08:25:50.471Z,3.30
2017-06-10T08:28:17.979Z,3.97
2017-06-10T08:30:45.499Z,1.95
2017-06-10T08:33:13.024Z,2.87
2017-06-10T08:35:41.669Z,2.60
2017-06-10T08:38:09.971Z,3.15
2017-06-10T08:40:37.472Z,4.20
2017-06-10T08:43:04.969Z,2.95
2017-06-10T08:45:32.507Z,2.50
2017-06-10T08:48:00.026Z,3.15
2017-06-10T08:50:28.297Z,2.70
2017-06-10T08:52:56.558Z,2.33
2017-06-10T08:55:24.110Z,2.67
2017-06-10T08:57:51.648Z,2.80
2017-06-10T09:00:19.157Z,2.45
2017-06-10T09:02:47.462Z,2.62
2017-06-10T09:05:14.982Z,2.55
2017-06-10T09:07:42.496Z,2.78
2017-06-10T09:10:10.003Z,2.60
2017-06-10T09:12:37.515Z,3.03
2017-06-10T09:15:06.604Z,2.67
2017-06-10T09:17:35.383Z,2.75
2017-06-10T09:20:02.931Z,2.85
2017-06-10T09:22:31.766Z,3.15
2017-06-10T09:25:00.498Z,2.87
2017-06-10T09:27:29.823Z,2.28
2017-06-10T09:29:57.377Z,2.78
2017-06-10T09:32:26.427Z,2.30
2017-06-10T09:34:55.435Z,2.20
2017-06-10T09:37:24.418Z,2.40
2017-06-10T09:39:53.344Z,2.33
2017-06-10T09:42:20.891Z,2.53
2017-06-10T09:44:49.200Z,2.85
2017-06-10T09:47:16.706Z,2.37
2017-06-10T09:49:44.220Z,2.72
2017-06-10T09:52:11.754Z,2.45
2017-06-10T09:54:40.034Z,2.10
2017-06-10T09:57:07.589Z,2.28
2017-06-10T09:59:35.119Z,2.42
2017-06-10T10:02:02.618Z,3.03
2017-06-10T10:04:30.136Z,2.30
2017-06-10T10:06:57.718Z,2.58
2017-06-10T10:09:26.035Z,2.40
2017-06-10T10:11:53.533Z,2.35
2017-06-10T10:14:21.054Z,4.62
2017-06-10T10:16:48.890Z,1.65
2017-06-10T10:19:16.416Z,2.87
2017-06-10T10:21:43.936Z,2.22
2017-06-10T10:24:11.533Z,2.22
2017-06-10T10:26:39.033Z,1.87
2017-06-10T10:29:07.301Z,1.48
2017-06-10T10:31:35.596Z,2.70
2017-06-10T10:34:03.133Z,8.38
2017-06-10T10:36:30.655Z,2.10
2017-06-10T10:38:58.191Z,2.25
2017-06-10T10:41:26.238Z,1.90
2017-06-10T10:43:53.759Z,1.50
2017-06-10T10:46:21.281Z,1.65
2017-06-10T10:48:48.798Z,2.30
2017-06-10T10:51:17.941Z,1.80
2017-06-10T10:53:45.452Z,2.53
2017-06-10T10:56:12.960Z,1.98
2017-06-10T10:58:40.583Z,1.67
2017-06-10T11:01:08.115Z,2.12
2017-06-10T11:03:35.610Z,2.20
2017-06-10T11:06:03.815Z,1.70
2017-06-10T11:08:31.347Z,2.25
2017-06-10T11:10:58.877Z,2.50
2017-06-10T11:13:26.413Z,1.85
2017-06-10T11:15:53.903Z,1.83
2017-06-10T11:18:22.187Z,2.20
2017-06-10T11:20:50.474Z,2.70
2017-06-10T11:23:18.025Z,1.70
2017-06-10T11:25:45.720Z,2.12
2017-06-10T11:28:13.263Z,2.55
2017-06-10T11:30:41.241Z,2.20
2017-06-10T11:33:12.002Z,2.05
2017-06-10T11:35:40.519Z,2.45
2017-06-10T11:38:08.171Z,3.20
2017-06-10T11:40:35.678Z,2.42
2017-06-10T11:43:03.327Z,2.72
2017-06-10T11:45:30.866Z,1.80
2017-06-10T11:47:58.401Z,2.10
2017-06-10T11:50:25.951Z,2.20
2017-06-10T11:52:53.491Z,2.15
2017-06-10T11:55:21.042Z,2.60
2017-06-10T11:57:48.567Z,2.80
2017-06-10T12:00:16.112Z,2.72
2017-06-10T12:02:43.685Z,2.53
2017-06-10T12:05:11.192Z,2.67
2017-06-10T12:07:38.704Z,2.37
2017-06-10T12:10:06.227Z,2.20
2017-06-10T12:12:33.934Z,2.20
2017-06-10T12:15:01.510Z,2.25
2017-06-10T12:17:29.067Z,2.10
2017-06-10T12:19:56.595Z,2.42
2017-06-10T12:22:24.152Z,1.98
2017-06-10T12:24:51.680Z,2.55
2017-06-10T12:27:19.350Z,2.20
2017-06-10T12:29:46.907Z,2.35
2017-06-10T12:32:14.428Z,2.22
2017-06-10T12:34:41.935Z,1.92
2017-06-10T12:37:09.461Z,1.77
2017-06-10T12:39:37.071Z,1.90
2017-06-10T12:42:04.604Z,1.80
2017-06-10T12:44:32.135Z,1.55
2017-06-10T12:46:59.633Z,2.05
2017-06-10T12:49:27.178Z,2.28
2017-06-10T12:51:54.690Z,1.90
2017-06-10T12:54:22.216Z,1.40
2017-06-10T12:56:49.738Z,2.10
2017-06-10T12:59:17.411Z,1.90
2017-06-10T13:01:45.015Z,2.00
2017-06-10T13:04:12.511Z,2.50
2017-06-10T13:06:40.092Z,1.67
2017-06-10T13:09:07.600Z,1.98
2017-06-10T13:11:35.130Z,1.75
2017-06-10T13:14:02.642Z,2.10
2017-06-10T13:16:30.151Z,1.80
2017-06-10T13:18:57.648Z,2.20
2017-06-10T13:21:26.247Z,2.45
2017-06-10T13:23:53.751Z,1.50
2017-06-10T13:26:21.572Z,2.03
2017-06-10T13:28:49.104Z,2.35
2017-06-10T13:31:16.603Z,1.67
2017-06-10T13:33:44.220Z,2.40
2017-06-10T13:36:11.748Z,2.80
2017-06-10T13:38:39.284Z,2.25
2017-06-10T13:41:06.810Z,2.12
2017-06-10T13:43:34.379Z,1.95
2017-06-10T13:46:01.905Z,2.45
2017-06-10T13:48:29.439Z,2.15
2017-06-10T13:50:56.982Z,2.85
2017-06-10T13:53:24.566Z,1.95
2017-06-10T13:55:52.072Z,1.80
2017-06-10T13:58:19.581Z,2.30
2017-06-10T14:00:47.196Z,2.78
2017-06-10T14:03:14.768Z,1.92
2017-06-10T14:05:42.295Z,2.58
2017-06-10T14:08:09.956Z,2.70
2017-06-10T14:10:37.714Z,6.78
2017-06-10T14:13:05.374Z,2.20
2017-06-10T14:15:32.910Z,2.05
2017-06-10T14:18:00.481Z,2.22
2017-06-10T14:20:28.000Z,1.70
2017-06-10T14:22:55.550Z,1.85
2017-06-10T14:25:23.065Z,1.48
2017-06-10T14:27:50.585Z,2.20
2017-06-10T14:30:18.127Z,1.62
2017-06-10T14:32:46.215Z,1.80
2017-06-10T14:35:13.897Z,2.20
2017-06-10T14:37:41.414Z,1.85
2017-06-10T14:40:09.690Z,2.10
2017-06-10T14:42:37.204Z,1.87
2017-06-10T14:45:04.751Z,2.45
2017-06-10T14:47:32.284Z,1.52
2017-06-10T14:50:00.543Z,1.60
2017-06-10T14:52:28.097Z,2.10
2017-06-10T14:54:55.616Z,2.00
2017-06-10T14:57:23.155Z,2.12
2017-06-10T14:59:50.661Z,2.15
2017-06-10T15:02:18.183Z,2.50
2017-06-10T15:04:45.729Z,2.78
2017-06-10T15:07:13.248Z,3.20
2017-06-10T15:09:40.774Z,2.50
2017-06-10T15:12:08.262Z,2.10
2017-06-10T15:14:36.067Z,1.80
2017-06-10T15:17:03.567Z,1.90
2017-06-10T15:19:31.087Z,1.40
2017-06-10T15:21:58.621Z,2.20
2017-06-10T15:24:26.138Z,1.62
2017-06-10T15:26:53.690Z,1.65
2017-06-10T15:29:21.184Z,2.00
2017-06-10T15:31:48.725Z,1.70
2017-06-10T15:34:16.215Z,1.80
2017-06-10T15:36:43.722Z,1.60
2017-06-10T15:39:11.262Z,1.65
2017-06-10T15:41:38.805Z,1.80
2017-06-10T15:44:07.093Z,2.47
2017-06-10T15:46:34.611Z,1.87
2017-06-10T15:49:02.122Z,1.75
2017-06-10T15:51:29.632Z,2.30
2017-06-10T15:53:57.152Z,2.00
2017-06-10T15:56:24.652Z,2.00
2017-06-10T15:58:52.159Z,1.87
2017-06-10T16:01:19.684Z,1.80
2017-06-10T16:03:47.199Z,5.25
2017-06-10T16:06:14.738Z,1.92
2017-06-10T16:08:42.291Z,1.80
2017-06-10T16:11:09.832Z,1.60
2017-06-10T16:13:37.368Z,2.10
2017-06-10T16:16:04.895Z,2.00
2017-06-10T16:18:32.427Z,2.05
2017-06-10T16:20:59.963Z,2.00
2017-06-10T16:23:27.446Z,1.40
2017-06-10T16:25:54.959Z,1.98
2017-06-10T16:28:22.459Z,1.85
2017-06-10T16:30:49.966Z,1.80
2017-06-10T16:33:17.487Z,1.77
2017-06-10T16:35:45.183Z,1.83
2017-06-10T16:38:12.680Z,1.75
2017-06-10T16:40:40.189Z,1.92
2017-06-10T16:43:07.743Z,1.70
2017-06-10T16:45:35.263Z,1.70
2017-06-10T16:48:02.925Z,1.85
2017-06-10T16:50:30.449Z,2.08
2017-06-10T16:52:57.966Z,1.90
2017-06-10T16:55:25.466Z,1.87
2017-06-10T16:57:53.015Z,1.90
2017-06-10T17:00:20.563Z,1.80
2017-06-10T17:02:48.067Z,2.37
2017-06-10T17:05:15.654Z,2.10
2017-06-10T17:07:43.962Z,2.25
2017-06-10T17:10:11.660Z,4.50
2017-06-10T17:12:39.151Z,3.25
2017-06-10T17:15:08.203Z,2.60
2017-06-10T17:17:35.720Z,2.53
2017-06-10T17:20:03.251Z,3.03
2017-06-10T17:22:31.544Z,2.22
2017-06-10T17:25:00.138Z,2.22
2017-06-10T17:27:27.636Z,2.50
2017-06-10T17:29:55.146Z,2.25
2017-06-10T17:32:23.591Z,2.20
2017-06-10T17:34:51.083Z,2.33
2017-06-10T17:37:19.339Z,2.60
2017-06-10T17:39:46.878Z,3.10
2017-06-10T17:42:14.428Z,3.20
2017-06-10T17:44:41.945Z,2.80
2017-06-10T17:47:10.247Z,3.37
2017-06-10T17:49:37.816Z,2.55
2017-06-10T17:52:05.650Z,2.15
2017-06-10T17:54:33.166Z,2.45
2017-06-10T17:57:00.689Z,2.22
2017-06-10T17:59:28.276Z,2.35
2017-06-10T18:01:55.874Z,1.87
2017-06-10T18:04:23.385Z,2.17
2017-06-10T18:06:51.034Z,2.50
2017-06-10T18:09:18.548Z,2.33
2017-06-10T18:11:46.067Z,2.33
2017-06-10T18:14:13.613Z,3.25
2017-06-10T18:16:41.221Z,2.15
2017-06-10T18:19:08.849Z,2.55
2017-06-10T18:21:36.367Z,2.10
2017-06-10T18:24:04.626Z,2.47
2017-06-10T18:26:32.142Z,1.90
2017-06-10T18:28:59.674Z,2.10
2017-06-10T18:31:27.210Z,2.45
2017-06-10T18:33:54.775Z,2.17
2017-06-10T18:36:23.071Z,2.22
2017-06-10T18:38:50.579Z,2.55
2017-06-10T18:41:18.111Z,2.10
2017-06-10T18:43:45.626Z,8.48
2017-06-10T18:46:13.891Z,2.50
2017-06-10T18:48:41.398Z,3.67
2017-06-10T18:51:08.998Z,2.20
2017-06-10T18:53:36.525Z,2.22
2017-06-10T18:56:04.111Z,2.35
2017-06-10T18:58:31.638Z,2.67
2017-06-10T19:00:59.137Z,2.35
2017-06-10T19:03:26.701Z,2.83
2017-06-10T19:05:54.223Z,2.15
2017-06-10T19:08:21.735Z,5.10
2017-06-10T19:10:49.294Z,2.00
2017-06-10T19:13:16.784Z,2.78
2017-06-10T19:15:44.328Z,3.12
2017-06-10T19:18:12.041Z,3.60
2017-06-10T19:20:39.602Z,3.80
2017-06-10T19:23:07.161Z,3.90
2017-06-10T19:25:34.674Z,4.25
2017-06-10T19:28:02.994Z,3.35
2017-06-10T19:30:30.528Z,4.35
2017-06-10T19:32:58.048Z,4.65
2017-06-10T19:35:25.599Z,6.18
2017-06-10T19:37:53.175Z,4.65
2017-06-10T19:40:20.734Z,4.80
2017-06-10T19:42:48.239Z,4.15
2017-06-10T19:45:15.786Z,3.50
2017-06-10T19:47:43.335Z,3.78
2017-06-10T19:50:10.835Z,3.53
2017-06-10T19:52:38.365Z,3.62
2017-06-10T19:55:05.913Z,3.90
2017-06-10T19:57:33.576Z,3.60
2017-06-10T20:00:01.147Z,3.45
2017-06-10T20:02:29.472Z,5.80
2017-06-10T20:04:56.975Z,13.43
2017-06-10T20:07:24.479Z,5.93
2017-06-10T20:09:52.107Z,3.65
2017-06-10T20:12:19.632Z,4.55
2017-06-10T20:14:47.129Z,6.18
2017-06-10T20:17:14.779Z,5.50
2017-06-10T20:19:42.298Z,3.70
2017-06-10T20:22:10.211Z,14.93
2017-06-10T20:24:37.739Z,6.30
2017-06-10T20:27:05.270Z,16.92
2017-06-10T20:29:32.874Z,4.82
2017-06-10T20:32:01.236Z,4.80
2017-06-10T20:34:28.768Z,5.20
2017-06-10T20:36:56.272Z,6.25
2017-06-10T20:39:24.637Z,9.82
2017-06-10T20:41:52.141Z,7.95
2017-06-10T20:44:19.695Z,7.30
2017-06-10T20:46:47.198Z,6.93
2017-06-10T20:49:14.915Z,6.20
2017-06-10T20:51:42.539Z,16.08
2017-06-10T20:54:10.059Z,17.83
2017-06-10T20:56:37.607Z,7.68
2017-06-10T20:59:05.104Z,5.90
2017-06-10T21:01:32.618Z,6.95
2017-06-10T21:04:00.159Z,6.50
2017-06-10T21:06:28.419Z,8.15
2017-06-10T21:08:56.707Z,7.15
2017-06-10T21:11:25.000Z,7.40
2017-06-10T21:13:52.590Z,7.25
2017-06-10T21:16:20.117Z,7.05
2017-06-10T21:18:47.731Z,8.07
2017-06-10T21:21:15.248Z,7.20
2017-06-10T21:23:42.800Z,8.25
2017-06-10T21:26:10.308Z,7.18
2017-06-10T21:28:37.851Z,7.35
2017-06-10T21:31:05.402Z,7.35
2017-06-10T21:33:32.921Z,6.45
2017-06-10T21:36:01.349Z,7.75
2017-06-10T21:38:28.857Z,7.15
2017-06-10T21:40:57.224Z,8.32
2017-06-10T21:43:24.757Z,7.40
2017-06-10T21:45:52.250Z,7.45
2017-06-10T21:48:20.543Z,9.05
2017-06-10T21:50:48.990Z,8.23
2017-06-10T21:53:16.528Z,7.75
2017-06-10T21:55:44.048Z,9.30
2017-06-10T21:58:11.557Z,8.18
2017-06-10T22:00:39.110Z,8.30
2017-06-10T22:03:06.608Z,12.85
2017-06-10T22:05:34.117Z,8.25
2017-06-10T22:08:01.640Z,8.25
2017-06-10T22:10:29.203Z,6.80
2017-06-10T22:12:56.723Z,7.60
2017-06-10T22:15:24.243Z,8.05
2017-06-10T22:17:51.887Z,8.77
2017-06-10T22:20:19.446Z,7.60
2017-06-10T22:22:46.957Z,7.22
2017-06-10T22:25:14.472Z,8.10
2017-06-10T22:27:42.109Z,8.48
2017-06-10T22:30:09.671Z,8.35
2017-06-10T22:32:37.188Z,8.10
2017-06-10T22:35:04.727Z,9.02
2017-06-10T22:37:32.287Z,8.25
2017-06-10T22:39:59.821Z,8.48
2017-06-10T22:42:28.167Z,10.38
2017-06-10T22:44:55.685Z,10.18
2017-06-10T22:47:23.204Z,10.05
2017-06-10T22:49:51.494Z,10.52
2017-06-10T22:52:20.646Z,10.63
2017-06-10T22:54:48.251Z,9.70
2017-06-10T22:57:16.572Z,8.20
2017-06-10T22:59:44.084Z,8.63
2017-06-10T23:02:11.632Z,9.00
2017-06-10T23:04:39.918Z,9.40
2017-06-10T23:07:08.190Z,9.48
2017-06-10T23:09:36.494Z,10.18
2017-06-10T23:12:04.347Z,9.30
2017-06-10T23:14:32.619Z,10.43
2017-06-10T23:17:00.872Z,9.32
2017-06-10T23:19:28.548Z,10.93
2017-06-10T23:21:56.121Z,9.32
2017-06-10T23:24:23.660Z,8.73
2017-06-10T23:26:51.195Z,10.02
2017-06-10T23:29:18.736Z,11.43
2017-06-10T23:31:46.249Z,10.15
2017-06-10T23:34:14.511Z,7.62
2017-06-10T23:36:42.026Z,9.75
2017-06-10T23:39:09.552Z,9.70
2017-06-10T23:41:37.088Z,9.20
2017-06-10T23:44:04.643Z,10.60
2017-06-10T23:46:32.150Z,11.45
2017-06-10T23:48:59.681Z,10.45
2017-06-10T23:51:27.959Z,10.65
2017-06-10T23:53:56.238Z,9.90
2017-06-10T23:56:24.554Z,11.80
2017-06-10T23:58:52.088Z,9.68
